3MI1 weather

Volare North Heliport
Harrietta, Michigan, United States

Public forecast

Using degrees Fahrenheit for public forecast. Weather courtesy of forecast.io.

Closest aviation weather report (METAR) to Volare North Heliport

Closest report is Wexford County Airport, 13.2 nm (24.5 km) E. Retrieved 2020/08/08 08:15 UTC (0 seconds ago):

KCAD 080815Z AUTO 00000KT 10SM CLR 10/08 A3015 RMK AO2 T00970091

Closest aviation forecast (TAF) to Volare North Heliport

Closest forecast is Manistee Co Blacker Airport, 22.5 nm (41.7 km) W. Retrieved 2020/08/08 06:21 UTC (2 hours ago):

TAF KMBL 080520Z 0806/0906 VRB03KT P6SM SCT250 FM081400 19009KT P6SM BKN050 FM081700 20010G16KT P6SM VCSH BKN050 FM090000 20007KT P6SM VCSH BKN060